createdAt,value
2023-12-09T00:00:13.814Z,9.18
2023-12-09T00:02:19.377Z,7.93
2023-12-09T00:04:24.566Z,9.23
2023-12-09T00:06:29.435Z,8.00
2023-12-09T00:08:34.568Z,9.60
2023-12-09T00:10:39.431Z,8.10
2023-12-09T00:12:45.290Z,8.20
2023-12-09T00:14:47.513Z,8.35
2023-12-09T00:16:52.413Z,9.15
2023-12-09T00:18:57.792Z,9.15
2023-12-09T00:21:05.214Z,8.80
2023-12-09T00:23:10.197Z,7.72
2023-12-09T00:25:15.395Z,8.57
2023-12-09T00:27:20.318Z,9.10
2023-12-09T00:29:25.069Z,8.80
2023-12-09T00:31:29.879Z,9.85
2023-12-09T00:33:34.931Z,8.65
2023-12-09T00:35:39.744Z,7.82
2023-12-09T00:37:47.212Z,8.50
2023-12-09T00:39:51.964Z,8.77
2023-12-09T00:41:56.854Z,9.10
2023-12-09T00:44:01.760Z,8.27
2023-12-09T00:46:06.068Z,7.07
2023-12-09T00:48:11.536Z,8.93
2023-12-09T00:50:16.615Z,7.55
2023-12-09T00:52:21.415Z,7.88
2023-12-09T00:54:30.911Z,6.93
2023-12-09T00:56:35.881Z,7.93
2023-12-09T00:58:40.783Z,7.88
2023-12-09T01:00:45.896Z,7.60
2023-12-09T01:02:48.510Z,8.45
2023-12-09T01:04:53.419Z,9.43
2023-12-09T01:06:58.196Z,7.53
2023-12-09T01:09:03.005Z,9.20
2023-12-09T01:11:10.672Z,8.35
2023-12-09T01:13:13.270Z,9.35
2023-12-09T01:15:18.133Z,7.00
2023-12-09T01:17:22.971Z,7.40
2023-12-09T01:19:27.687Z,7.95
2023-12-09T01:21:32.557Z,7.30
2023-12-09T01:23:37.341Z,7.55
2023-12-09T01:25:42.201Z,7.13
2023-12-09T01:27:49.820Z,9.23
2023-12-09T01:29:54.550Z,6.90
2023-12-09T01:32:01.604Z,6.82
2023-12-09T01:34:06.864Z,7.85
2023-12-09T01:36:12.621Z,7.43
2023-12-09T01:38:17.551Z,7.75
2023-12-09T01:40:22.771Z,8.73
2023-12-09T01:42:25.324Z,7.78
2023-12-09T01:44:32.942Z,9.02
2023-12-09T01:46:38.183Z,7.40
2023-12-09T01:48:43.360Z,7.47
2023-12-09T01:50:46.148Z,7.07
2023-12-09T01:54:53.186Z,8.27
2023-12-09T01:56:58.765Z,8.30
2023-12-09T01:59:03.540Z,7.47
2023-12-09T02:01:11.217Z,7.57
2023-12-09T02:03:18.902Z,8.32
2023-12-09T02:05:27.392Z,7.53
2023-12-09T02:07:32.503Z,6.53
2023-12-09T02:09:41.299Z,7.10
2023-12-09T02:11:53.588Z,7.25
2023-12-09T02:14:08.887Z,6.77
2023-12-09T02:16:21.293Z,6.90
2023-12-09T02:18:28.483Z,6.90
2023-12-09T02:20:33.734Z,6.85
2023-12-09T02:22:35.902Z,6.45
2023-12-09T02:24:43.251Z,5.88
2023-12-09T02:26:45.636Z,6.70
2023-12-09T02:28:58.927Z,6.93
2023-12-09T02:31:11.083Z,5.97
2023-12-09T02:33:19.032Z,6.00
2023-12-09T02:35:26.905Z,5.75
2023-12-09T02:37:34.143Z,5.45
2023-12-09T02:39:39.931Z,7.10
2023-12-09T02:41:50.132Z,7.32
2023-12-09T02:43:54.994Z,6.68
2023-12-09T02:45:59.984Z,6.43
2023-12-09T02:48:05.136Z,6.03
2023-12-09T02:50:13.119Z,6.75
2023-12-09T02:52:15.522Z,5.28
2023-12-09T02:54:22.246Z,7.72
2023-12-09T02:56:27.144Z,6.80
2023-12-09T02:58:34.427Z,6.43
2023-12-09T03:00:39.184Z,6.78
2023-12-09T03:02:44.074Z,6.68
2023-12-09T03:04:48.857Z,5.65
2023-12-09T03:06:53.674Z,6.80
2023-12-09T03:08:58.454Z,6.05
2023-12-09T03:11:03.192Z,6.30
2023-12-09T03:13:05.372Z,6.53
2023-12-09T03:15:13.997Z,6.65
2023-12-09T03:17:16.214Z,6.07
2023-12-09T03:19:21.442Z,6.00
2023-12-09T03:21:26.410Z,6.05
2023-12-09T03:23:31.209Z,5.78
2023-12-09T03:25:36.333Z,6.05
2023-12-09T03:27:38.681Z,6.20
2023-12-09T03:29:43.534Z,5.68
2023-12-09T03:31:51.609Z,5.88
2023-12-09T03:33:59.466Z,5.95
2023-12-09T03:36:04.348Z,5.18
2023-12-09T03:38:09.029Z,6.28
2023-12-09T03:40:15.424Z,5.35
2023-12-09T03:42:20.311Z,5.90
2023-12-09T03:44:22.809Z,8.02
2023-12-09T03:46:27.599Z,7.47
2023-12-09T03:48:35.178Z,5.53
2023-12-09T03:50:40.329Z,7.25
2023-12-09T03:52:45.474Z,5.63
2023-12-09T03:54:50.259Z,6.00
2023-12-09T03:56:55.234Z,8.02
2023-12-09T03:59:01.619Z,7.13
2023-12-09T04:01:06.976Z,7.32
2023-12-09T04:03:12.569Z,6.93
2023-12-09T04:05:20.055Z,6.53
2023-12-09T04:07:24.868Z,6.95
2023-12-09T04:09:29.610Z,6.38
2023-12-09T04:11:34.378Z,8.20
2023-12-09T04:13:39.233Z,6.43
2023-12-09T04:15:41.438Z,7.10
2023-12-09T04:17:46.409Z,7.15
2023-12-09T04:19:53.194Z,6.30
2023-12-09T04:22:00.755Z,6.32
2023-12-09T04:24:08.289Z,8.27
2023-12-09T04:26:13.276Z,8.35
2023-12-09T04:28:18.146Z,8.98
2023-12-09T04:30:23.372Z,8.45
2023-12-09T04:32:28.550Z,9.70
2023-12-09T04:34:33.674Z,7.18
2023-12-09T04:36:38.786Z,8.30
2023-12-09T04:38:46.475Z,9.30
2023-12-09T04:40:51.233Z,6.80
2023-12-09T04:42:56.315Z,8.27
2023-12-09T04:45:01.145Z,8.05
2023-12-09T04:47:08.160Z,7.57
2023-12-09T04:49:10.816Z,8.27
2023-12-09T04:51:16.016Z,7.88
2023-12-09T04:53:22.032Z,9.25
2023-12-09T04:55:30.171Z,8.73
2023-12-09T04:57:35.204Z,8.60
2023-12-09T04:59:39.968Z,8.77
2023-12-09T05:01:47.180Z,8.82
2023-12-09T05:03:52.212Z,6.70
2023-12-09T05:05:58.366Z,8.27
2023-12-09T05:08:04.637Z,8.20
2023-12-09T05:10:07.804Z,9.25
2023-12-09T05:12:18.097Z,9.32
2023-12-09T05:14:20.316Z,8.77
2023-12-09T05:16:25.054Z,9.57
2023-12-09T05:18:30.249Z,10.35
2023-12-09T05:20:32.545Z,10.02
2023-12-09T05:22:38.513Z,8.07
2023-12-09T05:24:44.017Z,8.70
2023-12-09T05:26:46.371Z,9.00
2023-12-09T05:28:53.963Z,8.48
2023-12-09T05:30:58.789Z,8.43
2023-12-09T05:33:05.029Z,8.52
2023-12-09T05:35:14.146Z,9.65
2023-12-09T05:37:18.810Z,8.13
2023-12-09T05:39:23.520Z,8.95
2023-12-09T05:41:28.551Z,10.15
2023-12-09T05:43:34.998Z,9.43
2023-12-09T05:45:44.332Z,7.43
2023-12-09T05:47:49.337Z,8.25
2023-12-09T05:49:54.208Z,8.57
2023-12-09T05:51:58.980Z,11.10
2023-12-09T05:54:03.757Z,9.27
2023-12-09T05:56:13.225Z,9.55
2023-12-09T05:58:18.198Z,10.40
2023-12-09T06:00:20.725Z,11.52
2023-12-09T06:02:28.612Z,9.75
2023-12-09T06:04:31.027Z,10.02
2023-12-09T06:06:35.927Z,10.65
2023-12-09T06:08:41.023Z,13.32
2023-12-09T06:10:49.097Z,13.07
2023-12-09T06:12:53.957Z,13.82
2023-12-09T06:14:58.730Z,13.50
2023-12-09T06:17:03.650Z,11.82
2023-12-09T06:19:12.325Z,14.95
2023-12-09T06:21:23.217Z,14.02
2023-12-09T06:23:28.013Z,14.57
2023-12-09T06:25:32.891Z,14.25
2023-12-09T06:27:39.348Z,17.10
2023-12-09T06:29:41.573Z,16.98
2023-12-09T06:31:46.480Z,19.63
2023-12-09T06:33:51.423Z,18.23
2023-12-09T06:35:59.092Z,17.00
2023-12-09T06:38:04.025Z,16.70
2023-12-09T06:40:10.522Z,17.20
2023-12-09T06:42:15.146Z,14.75
2023-12-09T06:44:19.916Z,15.75
2023-12-09T06:46:24.707Z,15.80
2023-12-09T06:48:29.808Z,15.57
2023-12-09T06:50:34.759Z,17.50
2023-12-09T06:52:42.572Z,17.63
2023-12-09T06:54:47.460Z,19.90
2023-12-09T06:56:52.308Z,20.05
2023-12-09T06:58:57.189Z,15.63
2023-12-09T07:01:03.073Z,16.10
2023-12-09T07:03:08.846Z,19.75
2023-12-09T07:05:18.497Z,20.15
2023-12-09T07:07:23.501Z,18.40
2023-12-09T07:09:31.609Z,21.23
2023-12-09T07:11:36.881Z,17.55
2023-12-09T07:13:42.430Z,19.83
2023-12-09T07:15:47.284Z,20.75
2023-12-09T07:17:52.303Z,19.05
2023-12-09T07:19:57.985Z,19.90
2023-12-09T07:22:04.908Z,17.65
2023-12-09T07:24:10.059Z,16.20
2023-12-09T07:26:17.709Z,18.95
2023-12-09T07:28:23.489Z,19.92
2023-12-09T07:30:28.762Z,17.95
2023-12-09T07:32:34.057Z,19.42
2023-12-09T07:34:37.455Z,19.85
2023-12-09T07:36:43.084Z,15.95
2023-12-09T07:38:48.262Z,18.88
2023-12-09T07:40:53.088Z,17.65
2023-12-09T07:43:00.358Z,20.25
2023-12-09T07:45:05.151Z,17.48
2023-12-09T07:47:10.326Z,18.85
2023-12-09T07:49:18.466Z,17.13
2023-12-09T07:51:23.460Z,16.35
2023-12-09T07:53:29.095Z,16.00
2023-12-09T07:55:34.284Z,15.52
2023-12-09T07:57:36.949Z,18.05
2023-12-09T07:59:45.025Z,18.33
2023-12-09T08:01:50.115Z,17.42
2023-12-09T08:03:55.060Z,15.23
2023-12-09T08:06:00.469Z,17.77
2023-12-09T08:08:05.611Z,17.52
2023-12-09T08:10:11.631Z,16.15
2023-12-09T08:12:14.296Z,15.30
2023-12-09T08:14:19.069Z,16.38
2023-12-09T08:16:26.384Z,14.05
2023-12-09T08:18:31.540Z,13.27
2023-12-09T08:20:36.503Z,14.05
2023-12-09T08:22:43.123Z,15.35
2023-12-09T08:24:47.844Z,12.60
2023-12-09T08:26:52.723Z,13.77
2023-12-09T08:28:58.768Z,13.02
2023-12-09T08:31:05.756Z,14.32
2023-12-09T08:33:13.537Z,13.15
2023-12-09T08:35:16.002Z,12.55
2023-12-09T08:37:26.738Z,13.98
2023-12-09T08:39:32.045Z,12.52
2023-12-09T08:41:37.335Z,13.75
2023-12-09T08:43:44.735Z,12.48
2023-12-09T08:45:49.621Z,11.57
2023-12-09T08:47:59.193Z,13.65
2023-12-09T08:50:21.315Z,10.88
2023-12-09T08:52:29.020Z,10.32
2023-12-09T08:54:34.427Z,10.90
2023-12-09T08:56:39.206Z,9.40
2023-12-09T08:58:48.227Z,9.75
2023-12-09T09:00:53.692Z,8.93
2023-12-09T09:02:58.841Z,9.98
2023-12-09T09:05:06.586Z,9.45
2023-12-09T09:07:08.917Z,7.97
2023-12-09T09:09:13.921Z,8.48
2023-12-09T09:11:18.844Z,8.75
2023-12-09T09:13:23.676Z,7.97
2023-12-09T09:15:28.843Z,6.82
2023-12-09T09:17:33.871Z,7.90
2023-12-09T09:19:38.994Z,8.05
2023-12-09T09:21:46.593Z,7.45
2023-12-09T09:23:51.290Z,8.15
2023-12-09T09:26:03.302Z,6.80
2023-12-09T09:28:09.826Z,6.05
2023-12-09T09:30:16.064Z,6.65
2023-12-09T09:32:18.847Z,5.35
2023-12-09T09:36:29.015Z,7.82
2023-12-09T09:38:46.930Z,7.20
2023-12-09T09:40:51.880Z,6.32
2023-12-09T09:43:00.503Z,5.30
2023-12-09T09:45:16.727Z,5.47
2023-12-09T09:47:20.446Z,5.57
2023-12-09T09:49:28.217Z,6.10
2023-12-09T09:51:34.802Z,6.20
2023-12-09T09:53:59.520Z,6.57
2023-12-09T09:56:05.216Z,5.72
2023-12-09T09:58:14.501Z,6.00
2023-12-09T10:00:21.150Z,5.50
2023-12-09T10:02:27.283Z,5.07
2023-12-09T10:04:32.351Z,6.47
2023-12-09T10:06:38.838Z,5.22
2023-12-09T10:08:47.919Z,5.45
2023-12-09T10:10:56.270Z,5.60
2023-12-09T10:13:01.459Z,5.35
2023-12-09T10:15:09.260Z,5.45
2023-12-09T10:17:14.403Z,6.32
2023-12-09T10:19:22.100Z,6.20
2023-12-09T10:21:29.663Z,6.30
2023-12-09T10:23:34.623Z,5.22
2023-12-09T10:25:44.066Z,4.93
2023-12-09T10:27:52.768Z,4.65
2023-12-09T10:30:00.180Z,3.92
2023-12-09T10:32:05.417Z,5.63
2023-12-09T10:34:17.692Z,4.95
2023-12-09T10:36:23.600Z,4.30
2023-12-09T10:38:32.186Z,4.65
2023-12-09T10:40:37.581Z,4.93
2023-12-09T10:42:49.026Z,5.38
2023-12-09T10:44:53.813Z,4.80
2023-12-09T10:46:58.584Z,4.90
2023-12-09T10:49:03.772Z,4.22
2023-12-09T10:51:09.212Z,4.38
2023-12-09T10:53:14.162Z,4.10
2023-12-09T10:55:20.720Z,4.78
2023-12-09T10:57:27.293Z,4.75
2023-12-09T10:59:36.729Z,4.05
2023-12-09T11:01:43.959Z,3.95
2023-12-09T11:03:49.832Z,4.82
2023-12-09T11:06:01.760Z,3.85
2023-12-09T11:08:07.662Z,3.70
2023-12-09T11:10:14.671Z,4.05
2023-12-09T11:12:30.315Z,4.40
2023-12-09T11:14:38.315Z,4.57
2023-12-09T11:16:47.634Z,4.10
2023-12-09T11:18:51.330Z,4.55
2023-12-09T11:20:58.975Z,4.32
2023-12-09T11:23:05.534Z,4.10
2023-12-09T11:25:13.586Z,4.60
2023-12-09T11:27:22.042Z,5.10
2023-12-09T11:29:28.561Z,3.22
2023-12-09T11:31:38.823Z,3.78
2023-12-09T11:33:43.860Z,3.97
2023-12-09T11:35:51.529Z,3.97
2023-12-09T11:37:57.795Z,5.38
2023-12-09T11:40:07.187Z,3.05
2023-12-09T11:42:14.326Z,3.05
2023-12-09T11:44:19.294Z,4.22
2023-12-09T11:46:21.981Z,3.35
2023-12-09T11:48:30.947Z,2.78
2023-12-09T11:50:35.828Z,3.45
2023-12-09T11:52:40.678Z,2.67
2023-12-09T11:54:46.090Z,3.08
2023-12-09T11:56:50.814Z,3.65
2023-12-09T11:58:53.515Z,2.88
2023-12-09T12:01:00.970Z,3.40
2023-12-09T12:03:06.578Z,3.15
2023-12-09T12:05:15.376Z,2.80
2023-12-09T12:07:20.318Z,3.83
2023-12-09T12:09:25.155Z,2.50
2023-12-09T12:11:29.866Z,3.08
2023-12-09T12:13:32.207Z,3.33
2023-12-09T12:15:37.159Z,2.47
2023-12-09T12:17:46.234Z,2.92
2023-12-09T12:19:51.715Z,2.63
2023-12-09T12:21:59.796Z,3.55
2023-12-09T12:24:07.036Z,3.33
2023-12-09T12:26:10.888Z,2.85
2023-12-09T12:28:18.906Z,2.85
2023-12-09T12:30:24.371Z,2.60
2023-12-09T12:32:29.770Z,2.63
2023-12-09T12:34:34.872Z,2.45
2023-12-09T12:36:39.909Z,2.33
2023-12-09T12:38:48.331Z,2.10
2023-12-09T12:40:54.003Z,2.25
2023-12-09T12:42:58.827Z,3.08
2023-12-09T12:45:04.924Z,2.13
2023-12-09T12:47:15.214Z,2.28
2023-12-09T12:49:20.241Z,3.22
2023-12-09T12:51:26.883Z,2.47
2023-12-09T12:53:32.068Z,2.42
2023-12-09T12:55:39.534Z,2.00
2023-12-09T12:57:43.116Z,2.10
2023-12-09T12:59:48.003Z,2.95
2023-12-09T13:01:52.950Z,2.40
2023-12-09T13:03:58.164Z,2.55
2023-12-09T13:06:06.015Z,1.83
2023-12-09T13:08:08.205Z,1.95
2023-12-09T13:10:14.001Z,1.77
2023-12-09T13:12:21.602Z,1.80
2023-12-09T13:14:26.436Z,2.13
2023-12-09T13:16:28.746Z,2.20
2023-12-09T13:18:34.004Z,1.90
2023-12-09T13:20:39.237Z,2.67
2023-12-09T13:22:43.987Z,2.47
2023-12-09T13:24:49.275Z,2.53
2023-12-09T13:26:54.133Z,2.45
2023-12-09T13:29:01.638Z,2.35
2023-12-09T13:31:06.889Z,3.15
2023-12-09T13:33:12.960Z,2.33
2023-12-09T13:35:16.370Z,2.83
2023-12-09T13:37:22.238Z,2.60
2023-12-09T13:39:27.325Z,2.80
2023-12-09T13:41:32.299Z,2.80
2023-12-09T13:43:37.045Z,2.05
2023-12-09T13:45:44.601Z,2.70
2023-12-09T13:47:49.578Z,2.60
2023-12-09T13:49:54.561Z,3.03
2023-12-09T13:51:59.923Z,1.85
2023-12-09T13:54:05.110Z,2.40
2023-12-09T13:56:11.642Z,1.77
2023-12-09T13:58:16.645Z,1.83
2023-12-09T14:00:22.020Z,2.08
2023-12-09T14:02:29.827Z,2.47
2023-12-09T14:04:34.923Z,2.03
2023-12-09T14:06:41.370Z,2.00
2023-12-09T14:08:46.324Z,2.00
2023-12-09T14:10:51.337Z,1.95
2023-12-09T14:12:56.820Z,1.85
2023-12-09T14:15:01.776Z,2.03
2023-12-09T14:17:08.300Z,1.73
2023-12-09T14:19:15.828Z,1.80
2023-12-09T14:21:18.774Z,2.05
2023-12-09T14:25:29.590Z,1.90
2023-12-09T14:27:35.531Z,2.35
2023-12-09T14:29:37.670Z,1.92
2023-12-09T14:31:42.577Z,1.80
2023-12-09T14:33:47.587Z,2.10
2023-12-09T14:35:55.385Z,2.20
2023-12-09T14:38:00.251Z,1.67
2023-12-09T14:40:06.601Z,1.90
2023-12-09T14:42:11.568Z,2.10
2023-12-09T14:44:16.461Z,1.75
2023-12-09T14:46:24.687Z,1.80
2023-12-09T14:48:32.521Z,2.53
2023-12-09T14:50:37.784Z,2.00
2023-12-09T14:52:46.436Z,2.10
2023-12-09T14:54:51.512Z,2.28
2023-12-09T14:56:56.668Z,2.28
2023-12-09T14:59:02.281Z,1.88
2023-12-09T15:01:07.899Z,2.97
2023-12-09T15:03:13.420Z,3.00
2023-12-09T15:05:18.607Z,2.05
2023-12-09T15:07:23.550Z,2.58
2023-12-09T15:09:28.432Z,3.05
2023-12-09T15:11:33.418Z,3.35
2023-12-09T15:13:38.137Z,2.85
2023-12-09T15:15:40.314Z,2.97
2023-12-09T15:17:45.343Z,3.35
2023-12-09T15:19:51.227Z,2.80
2023-12-09T15:21:56.799Z,2.53
2023-12-09T15:24:02.035Z,2.95
2023-12-09T15:26:09.865Z,2.67
2023-12-09T15:28:15.529Z,3.05
2023-12-09T15:30:20.709Z,3.05
2023-12-09T15:32:28.341Z,2.80
2023-12-09T15:34:31.993Z,2.42
2023-12-09T15:36:37.266Z,2.65
2023-12-09T15:38:42.090Z,3.47
2023-12-09T15:40:48.260Z,3.25
2023-12-09T15:42:56.001Z,3.95
2023-12-09T15:45:01.613Z,3.03
2023-12-09T15:47:10.548Z,4.18
2023-12-09T15:49:15.812Z,3.45
2023-12-09T15:51:20.760Z,3.33
2023-12-09T15:53:27.057Z,4.10
2023-12-09T15:55:34.178Z,3.35
2023-12-09T15:57:39.075Z,3.70
2023-12-09T15:59:47.845Z,3.63
2023-12-09T16:01:55.255Z,3.30
2023-12-09T16:04:00.660Z,4.15
2023-12-09T16:06:05.551Z,3.50
2023-12-09T16:08:10.641Z,3.08
2023-12-09T16:10:16.234Z,4.22
2023-12-09T16:12:21.733Z,3.42
2023-12-09T16:14:26.792Z,3.65
2023-12-09T16:16:34.381Z,4.18
2023-12-09T16:18:40.406Z,4.40
2023-12-09T16:20:45.423Z,3.97
2023-12-09T16:22:50.301Z,4.20
2023-12-09T16:24:57.500Z,4.28
2023-12-09T16:27:02.360Z,4.32
2023-12-09T16:29:07.141Z,4.95
2023-12-09T16:31:17.329Z,5.30
2023-12-09T16:33:24.931Z,5.38
2023-12-09T16:35:29.753Z,6.15
2023-12-09T16:37:31.976Z,4.70
2023-12-09T16:39:37.033Z,6.13
2023-12-09T16:41:42.005Z,5.97
2023-12-09T16:43:46.847Z,7.28
2023-12-09T16:45:51.818Z,6.80
2023-12-09T16:47:57.426Z,7.28
2023-12-09T16:50:06.601Z,7.18
2023-12-09T16:52:13.435Z,8.02
2023-12-09T16:54:15.707Z,8.80
2023-12-09T16:56:20.700Z,7.75
2023-12-09T16:58:25.556Z,9.30
2023-12-09T17:00:27.814Z,7.30
2023-12-09T17:02:32.915Z,8.88
2023-12-09T17:04:37.910Z,8.52
2023-12-09T17:06:45.881Z,8.15
2023-12-09T17:08:50.941Z,7.88
2023-12-09T17:10:58.633Z,10.10
2023-12-09T17:13:03.439Z,9.48
2023-12-09T17:15:09.101Z,8.30
2023-12-09T17:17:14.373Z,8.77
2023-12-09T17:19:19.383Z,9.35
2023-12-09T17:21:21.695Z,8.95
2023-12-09T17:23:29.082Z,10.98
2023-12-09T17:25:33.985Z,7.70
2023-12-09T17:27:38.882Z,8.88
2023-12-09T17:29:41.367Z,6.18
2023-12-09T17:31:48.219Z,5.65
2023-12-09T17:33:53.599Z,6.00
2023-12-09T17:35:59.146Z,5.47
2023-12-09T17:38:03.979Z,5.43
2023-12-09T17:40:12.783Z,5.68
2023-12-09T17:42:17.588Z,5.95
2023-12-09T17:44:22.421Z,5.28
2023-12-09T17:46:27.434Z,3.95
2023-12-09T17:48:32.602Z,4.00
2023-12-09T17:50:37.555Z,4.68
2023-12-09T17:52:42.579Z,5.53
2023-12-09T17:54:47.474Z,5.07
2023-12-09T17:56:54.994Z,3.90
2023-12-09T17:58:57.585Z,5.18
2023-12-09T18:03:08.410Z,4.57
2023-12-09T18:05:13.449Z,2.83
2023-12-09T18:07:15.799Z,4.10
2023-12-09T18:09:20.637Z,3.83
2023-12-09T18:11:25.950Z,3.85
2023-12-09T18:13:33.674Z,3.70
2023-12-09T18:15:38.798Z,3.55
2023-12-09T18:17:44.848Z,3.67
2023-12-09T18:19:50.088Z,3.97
2023-12-09T18:21:54.783Z,4.95
2023-12-09T18:24:01.392Z,4.90
2023-12-09T18:26:06.471Z,4.07
2023-12-09T18:28:11.433Z,4.00
2023-12-09T18:30:21.890Z,4.70
2023-12-09T18:32:27.583Z,4.50
2023-12-09T18:34:33.200Z,3.97
2023-12-09T18:36:38.145Z,4.95
2023-12-09T18:38:40.376Z,4.72
2023-12-09T18:40:45.216Z,5.05
2023-12-09T18:42:52.242Z,3.55
2023-12-09T18:44:54.734Z,4.30
2023-12-09T18:47:02.742Z,4.18
2023-12-09T18:49:09.491Z,3.88
2023-12-09T18:51:14.374Z,4.38
2023-12-09T18:53:19.269Z,3.47
2023-12-09T18:55:24.056Z,3.75
2023-12-09T18:57:29.691Z,5.18
2023-12-09T18:59:36.728Z,3.80
2023-12-09T19:01:41.532Z,4.53
2023-12-09T19:03:46.498Z,4.30
2023-12-09T19:05:51.537Z,5.10
2023-12-09T19:07:53.811Z,3.53
2023-12-09T19:09:59.227Z,3.67
2023-12-09T19:12:04.959Z,3.63
2023-12-09T19:14:09.653Z,3.15
2023-12-09T19:16:14.767Z,3.42
2023-12-09T19:18:19.645Z,4.38
2023-12-09T19:20:27.116Z,3.28
2023-12-09T19:22:32.482Z,3.38
2023-12-09T19:24:34.685Z,4.72
2023-12-09T19:26:39.653Z,4.53
2023-12-09T19:28:44.478Z,3.40
2023-12-09T19:30:49.546Z,3.72
2023-12-09T19:32:54.394Z,3.92
2023-12-09T19:34:57.093Z,3.90
2023-12-09T19:37:04.548Z,3.38
2023-12-09T19:39:09.408Z,3.53
2023-12-09T19:41:14.181Z,3.83
2023-12-09T19:43:20.468Z,3.30
2023-12-09T19:45:26.749Z,3.08
2023-12-09T19:47:28.880Z,4.75
2023-12-09T19:49:34.282Z,4.65
2023-12-09T19:51:39.188Z,2.78
2023-12-09T19:53:46.522Z,4.68
2023-12-09T19:55:52.860Z,5.25
2023-12-09T19:57:55.006Z,3.80
2023-12-09T20:00:01.990Z,3.53
2023-12-09T20:02:07.034Z,4.25
2023-12-09T20:04:15.667Z,4.57
2023-12-09T20:06:20.551Z,4.13
2023-12-09T20:08:25.560Z,5.28
2023-12-09T20:10:34.702Z,3.42
2023-12-09T20:12:39.542Z,3.75
2023-12-09T20:14:44.412Z,4.75
2023-12-09T20:16:51.714Z,3.05
2023-12-09T20:18:56.748Z,3.72
2023-12-09T20:21:02.431Z,3.30
2023-12-09T20:23:07.334Z,4.97
2023-12-09T20:25:14.104Z,3.80
2023-12-09T20:27:22.025Z,4.07
2023-12-09T20:29:26.286Z,3.80
2023-12-09T20:31:31.064Z,3.30
2023-12-09T20:33:36.504Z,3.25
2023-12-09T20:35:41.338Z,4.57
2023-12-09T20:37:46.092Z,3.33
2023-12-09T20:39:50.920Z,3.42
2023-12-09T20:41:57.642Z,4.57
2023-12-09T20:44:05.050Z,4.18
2023-12-09T20:46:10.327Z,3.92
2023-12-09T20:48:17.318Z,4.07
2023-12-09T20:50:22.219Z,3.85
2023-12-09T20:52:27.330Z,2.97
2023-12-09T20:54:32.569Z,2.92
2023-12-09T20:56:37.502Z,3.50
2023-12-09T20:58:42.341Z,4.63
2023-12-09T21:00:50.612Z,3.70
2023-12-09T21:02:55.402Z,5.47
2023-12-09T21:05:01.413Z,4.00
2023-12-09T21:07:08.400Z,3.92
2023-12-09T21:09:15.961Z,4.07
2023-12-09T21:11:22.687Z,3.58
2023-12-09T21:13:27.352Z,3.85
2023-12-09T21:15:32.321Z,3.78
2023-12-09T21:17:37.161Z,4.45
2023-12-09T21:19:42.953Z,4.25
2023-12-09T21:21:48.008Z,3.70
2023-12-09T21:23:53.109Z,3.72
2023-12-09T21:25:57.852Z,3.63
2023-12-09T21:28:04.910Z,4.20
2023-12-09T21:30:12.208Z,3.55
2023-12-09T21:32:16.966Z,2.80
2023-12-09T21:34:24.615Z,3.72
2023-12-09T21:36:30.522Z,4.45
2023-12-09T21:38:35.322Z,4.90
2023-12-09T21:40:40.361Z,4.05
2023-12-09T21:42:47.493Z,3.80
2023-12-09T21:44:54.219Z,4.28
2023-12-09T21:46:59.023Z,4.05
2023-12-09T21:49:06.159Z,4.25
2023-12-09T21:51:13.908Z,5.13
2023-12-09T21:53:18.755Z,4.50
2023-12-09T21:55:24.007Z,4.70
2023-12-09T21:57:31.915Z,4.90
2023-12-09T21:59:37.799Z,4.40
2023-12-09T22:01:44.870Z,4.97
2023-12-09T22:03:50.740Z,4.32
2023-12-09T22:05:55.796Z,5.25
2023-12-09T22:08:03.337Z,4.97
2023-12-09T22:10:10.759Z,4.47
2023-12-09T22:12:15.648Z,4.88
2023-12-09T22:14:20.818Z,4.82
2023-12-09T22:16:26.052Z,5.90
2023-12-09T22:18:32.363Z,4.28
2023-12-09T22:20:37.312Z,5.43
2023-12-09T22:22:51.622Z,5.25
2023-12-09T22:25:05.434Z,4.20
2023-12-09T22:27:10.699Z,5.38
2023-12-09T22:29:13.348Z,3.97
2023-12-09T22:31:19.249Z,3.97
2023-12-09T22:33:25.586Z,5.43
2023-12-09T22:35:33.235Z,4.28
2023-12-09T22:37:40.961Z,4.22
2023-12-09T22:39:47.246Z,4.55
2023-12-09T22:41:54.971Z,3.60
2023-12-09T22:44:07.017Z,4.57
2023-12-09T22:46:11.876Z,4.35
2023-12-09T22:48:20.957Z,3.28
2023-12-09T22:50:27.896Z,4.65
2023-12-09T22:52:34.400Z,4.18
2023-12-09T22:54:37.177Z,4.70
2023-12-09T22:58:49.347Z,3.50
2023-12-09T23:00:57.245Z,3.28
2023-12-09T23:03:04.409Z,3.17
2023-12-09T23:05:13.102Z,4.50
2023-12-09T23:07:20.356Z,3.92
2023-12-09T23:09:25.241Z,4.88
2023-12-09T23:11:30.548Z,3.55
2023-12-09T23:13:34.020Z,5.45
2023-12-09T23:15:41.548Z,5.57
2023-12-09T23:17:46.757Z,3.95
2023-12-09T23:19:49.547Z,4.05
2023-12-09T23:21:55.574Z,4.38
2023-12-09T23:24:00.619Z,4.40
2023-12-09T23:26:05.742Z,3.88
2023-12-09T23:28:11.623Z,3.22
2023-12-09T23:30:17.160Z,5.55
2023-12-09T23:32:22.047Z,4.60
2023-12-09T23:34:26.864Z,5.68
2023-12-09T23:36:31.721Z,4.22
2023-12-09T23:38:36.796Z,4.80
2023-12-09T23:40:41.744Z,4.60
2023-12-09T23:42:47.291Z,4.60
2023-12-09T23:44:52.384Z,5.28
2023-12-09T23:46:57.176Z,4.38
2023-12-09T23:49:04.923Z,4.65
2023-12-09T23:51:11.030Z,4.53
2023-12-09T23:53:18.287Z,4.28
2023-12-09T23:55:24.975Z,4.22
2023-12-09T23:57:30.844Z,4.05
2023-12-09T23:59:36.427Z,5.28
